Time;durP1;ratioP1;P1;durP2;ratioP2;P2;SDS_P1;SDS_P2;PMS_P1;PMS_P2;Temp;Humidity;BMP_temperature;BMP_pressure;BME280_temperature;BME280_humidity;BME280_pressure;Samples;Min_cycle;Max_cycle;Signal;HPM_P1;HPM_P2
2024/01/04 00:00:48;;;;;;;10.68;4.15;;;;;;;9.27;94.07;99411.13;5064943;28;20055;-78
2024/01/04 00:03:14;;;;;;;9.90;4.68;;;;;;;9.26;93.67;99412.09;5082107;28;20467;-78
2024/01/04 00:05:39;;;;;;;7.97;3.60;;;;;;;9.28;94.05;99416.34;5078933;28;20082;-78
2024/01/04 00:08:05;;;;;;;15.00;3.60;;;;;;;9.28;94.44;99429.53;5078696;28;20040;-78
2024/01/04 00:10:30;;;;;;;9.73;3.05;;;;;;;9.27;94.29;99438.34;5058404;28;20024;-78
2024/01/04 00:12:55;;;;;;;10.60;3.47;;;;;;;9.27;94.19;99441.00;5073815;28;20032;-77
2024/01/04 00:15:21;;;;;;;8.88;3.40;;;;;;;9.26;94.22;99446.38;5075287;28;20082;-77
2024/01/04 00:17:46;;;;;;;9.35;3.30;;;;;;;9.26;94.20;99454.28;5064225;28;20020;-78
2024/01/04 00:20:11;;;;;;;7.30;2.53;;;;;;;9.25;94.36;99452.59;5060911;28;20118;-78
2024/01/04 00:22:37;;;;;;;6.40;2.35;;;;;;;9.23;93.38;99463.19;5074015;28;20071;-77
2024/01/04 00:25:02;;;;;;;6.60;2.17;;;;;;;9.22;93.27;99474.69;5081304;28;20031;-77
2024/01/04 00:27:28;;;;;;;4.88;2.05;;;;;;;9.21;92.90;99478.25;5082129;28;20066;-77
2024/01/04 00:29:53;;;;;;;3.25;1.83;;;;;;;9.22;92.73;99484.38;5082453;28;20035;-78
2024/01/04 00:32:18;;;;;;;5.68;2.08;;;;;;;9.21;92.41;99478.25;5081915;28;20483;-77
2024/01/04 00:34:44;;;;;;;9.93;1.80;;;;;;;9.22;92.43;99490.50;5076340;28;20426;-78
2024/01/04 00:37:09;;;;;;;6.68;2.58;;;;;;;9.21;92.02;99499.38;5064316;28;20031;-77
2024/01/04 00:39:34;;;;;;;3.88;1.90;;;;;;;9.20;91.86;99510.84;5082650;28;20503;-77
2024/01/04 00:42:02;;;;;;;6.82;2.53;;;;;;;9.20;92.19;99505.59;5081545;28;20548;-78
2024/01/04 00:44:27;;;;;;;7.45;2.10;;;;;;;9.22;92.37;99516.03;5080712;28;20020;-77
2024/01/04 00:46:52;;;;;;;5.53;1.83;;;;;;;9.19;92.55;99523.19;5079664;28;20089;-78
2024/01/04 00:49:18;;;;;;;7.53;1.98;;;;;;;9.19;92.20;99523.19;5082393;28;20106;-77
2024/01/04 00:51:43;;;;;;;5.25;1.85;;;;;;;9.19;91.90;99524.97;5079506;28;20541;-78
2024/01/04 00:54:09;;;;;;;7.28;1.38;;;;;;;9.20;91.79;99538.06;5078077;28;20044;-78
2024/01/04 00:56:35;;;;;;;7.00;2.00;;;;;;;9.19;91.92;99541.66;5079793;28;20103;-77
2024/01/04 00:59:01;;;;;;;4.63;1.70;;;;;;;9.20;92.23;99553.03;5084476;28;20052;-77
2024/01/04 01:01:26;;;;;;;6.22;1.60;;;;;;;9.19;91.94;99557.47;5083394;28;20082;-78
2024/01/04 01:03:52;;;;;;;11.52;2.50;;;;;;;9.20;92.29;99563.59;5080589;28;20472;-77
2024/01/04 01:06:18;;;;;;;5.65;1.77;;;;;;;9.18;92.34;99566.28;5086208;28;20134;-78
2024/01/04 01:08:43;;;;;;;3.60;1.25;;;;;;;9.15;91.87;99577.03;5080882;28;20052;-74
2024/01/04 01:11:09;;;;;;;5.72;2.10;;;;;;;9.18;92.19;99583.91;5060369;28;20024;-74
2024/01/04 01:13:34;;;;;;;2.60;1.60;;;;;;;9.16;92.44;99588.41;5081045;28;20104;-75
2024/01/04 01:16:00;;;;;;;4.25;1.52;;;;;;;9.16;92.18;99585.78;5082018;28;20016;-74
2024/01/04 01:18:26;;;;;;;4.43;1.45;;;;;;;9.16;91.78;99593.69;5080378;28;20035;-74
2024/01/04 01:20:51;;;;;;;6.10;1.98;;;;;;;9.19;92.15;99598.81;5060785;28;20024;-74
2024/01/04 01:23:17;;;;;;;3.85;1.65;;;;;;;9.17;91.82;99601.50;5086914;28;20395;-74
2024/01/04 01:25:42;;;;;;;6.32;1.75;;;;;;;9.17;91.78;99601.50;5062636;28;20028;-75
2024/01/04 01:28:07;;;;;;;4.70;1.63;;;;;;;9.17;91.97;99605.94;5080849;28;20078;-74
2024/01/04 01:30:33;;;;;;;5.00;1.67;;;;;;;9.14;92.28;99603.50;5080888;28;20517;-74
2024/01/04 01:32:58;;;;;;;2.13;1.50;;;;;;;9.14;92.13;99611.41;5063324;28;20494;-74
2024/01/04 01:35:23;;;;;;;6.28;2.08;;;;;;;9.13;92.24;99615.78;5083858;28;20394;-74
2024/01/04 01:37:49;;;;;;;4.40;1.50;;;;;;;9.14;92.56;99617.53;5060196;28;20047;-74
2024/01/04 01:40:14;;;;;;;6.28;1.70;;;;;;;9.13;92.64;99634.25;5080135;28;20435;-73
2024/01/04 01:42:40;;;;;;;8.18;2.30;;;;;;;9.16;92.47;99627.97;5063967;28;20030;-75
2024/01/04 01:45:06;;;;;;;5.85;1.67;;;;;;;9.15;92.35;99642.09;5077804;28;20475;-75
2024/01/04 01:47:31;;;;;;;5.40;2.13;;;;;;;9.16;92.34;99649.06;5081195;28;20507;-74
2024/01/04 01:49:57;;;;;;;9.65;1.65;;;;;;;9.15;92.79;99658.78;5081466;28;20495;-74
2024/01/04 01:52:23;;;;;;;6.97;1.60;;;;;;;9.15;92.52;99664.03;5079986;28;20498;-74
2024/01/04 01:54:49;;;;;;;4.43;1.90;;;;;;;9.14;92.26;99661.50;5083430;28;20028;-75
2024/01/04 01:57:16;;;;;;;7.63;2.05;;;;;;;9.15;92.86;99671.94;5082436;28;20494;-74
2024/01/04 01:59:44;;;;;;;11.77;1.92;;;;;;;9.16;92.45;99676.28;5081313;28;20024;-74
2024/01/04 02:02:09;;;;;;;5.95;1.63;;;;;;;9.17;92.35;99685.03;5080848;28;20032;-74
2024/01/04 02:04:35;;;;;;;9.90;2.33;;;;;;;9.15;92.16;99684.28;5063747;28;20038;-74
2024/01/04 02:07:01;;;;;;;5.78;2.50;;;;;;;9.15;92.51;99679.88;5080919;28;20024;-74
2024/01/04 02:09:26;;;;;;;7.22;1.73;;;;;;;9.16;92.60;99685.97;5085213;28;20347;-74
2024/01/04 02:12:02;;;;;;;6.07;2.20;;;;;;;9.15;92.46;99685.13;5084366;28;20093;-74
2024/01/04 02:14:27;;;;;;;9.75;3.53;;;;;;;9.14;92.40;99695.78;5083364;28;20383;-74
2024/01/04 02:16:53;;;;;;;8.70;2.45;;;;;;;9.11;91.87;99698.56;5080688;28;20039;-75
2024/01/04 02:19:18;;;;;;;11.30;2.28;;;;;;;9.08;91.80;99706.63;5083285;28;20524;-74
2024/01/04 02:21:44;;;;;;;9.75;2.60;;;;;;;9.04;92.13;99710.34;5061625;28;20431;-74
2024/01/04 02:24:09;;;;;;;5.38;2.03;;;;;;;9.05;92.50;99717.34;5080713;28;20039;-74
2024/01/04 02:26:34;;;;;;;9.38;2.58;;;;;;;9.05;92.39;99722.63;5079198;28;20036;-74
2024/01/04 02:29:00;;;;;;;8.05;2.00;;;;;;;9.08;92.27;99730.34;5080989;28;20103;-73
2024/01/04 02:31:25;;;;;;;5.28;2.00;;;;;;;9.07;92.17;99716.31;5086614;28;20016;-74
2024/01/04 02:33:50;;;;;;;7.95;2.20;;;;;;;9.10;92.17;99728.50;5072234;28;20024;-74
2024/01/04 02:36:16;;;;;;;8.40;2.67;;;;;;;9.07;92.23;99729.50;5090090;28;20089;-74
2024/01/04 02:38:41;;;;;;;6.93;2.30;;;;;;;9.11;92.07;99728.41;5086037;28;20028;-75
2024/01/04 02:41:06;;;;;;;6.25;2.58;;;;;;;9.12;92.28;99730.09;5065769;28;20035;-75
2024/01/04 02:43:32;;;;;;;9.10;2.65;;;;;;;9.12;91.91;99738.03;5091634;28;20046;-74
2024/01/04 02:45:57;;;;;;;7.82;2.25;;;;;;;9.12;92.34;99743.28;5089052;28;20034;-74
2024/01/04 02:48:22;;;;;;;9.52;2.70;;;;;;;9.13;92.23;99739.72;5087897;28;20058;-78
2024/01/04 02:50:48;;;;;;;14.73;3.00;;;;;;;9.14;92.26;99736.19;5086365;28;20070;-77
2024/01/04 02:53:13;;;;;;;9.65;2.88;;;;;;;9.13;92.04;99749.41;5087196;28;20023;-78
2024/01/04 02:55:38;;;;;;;9.38;2.70;;;;;;;9.14;91.87;99746.72;5089117;28;20052;-78
2024/01/04 02:58:04;;;;;;;6.90;2.63;;;;;;;9.12;92.21;99748.56;5079885;28;20024;-78
2024/01/04 03:00:29;;;;;;;8.43;2.60;;;;;;;9.11;92.04;99748.66;5086454;28;20471;-74
2024/01/04 03:02:55;;;;;;;8.80;3.70;;;;;;;9.11;91.45;99749.50;5089024;28;20403;-74
2024/01/04 03:05:20;;;;;;;10.52;3.33;;;;;;;9.12;91.41;99753.00;5087805;28;20074;-74
2024/01/04 03:07:45;;;;;;;8.95;2.53;;;;;;;9.12;91.13;99769.66;5084306;28;20032;-74
2024/01/04 03:10:11;;;;;;;4.22;2.40;;;;;;;9.14;91.10;99765.19;5071152;28;20054;-73
2024/01/04 03:12:37;;;;;;;8.38;2.17;;;;;;;9.08;90.47;99768.09;5089476;28;20020;-74
2024/01/04 03:15:07;;;;;;;3.13;2.40;;;;;;;9.07;90.52;99776.09;5087757;28;20052;-73
2024/01/04 03:17:32;;;;;;;7.38;2.05;;;;;;;9.06;90.33;99777.91;5088262;28;20028;-74
2024/01/04 03:19:57;;;;;;;6.13;2.22;;;;;;;9.07;90.07;99776.09;5091472;28;20019;-74
2024/01/04 03:22:23;;;;;;;4.53;2.05;;;;;;;9.07;90.23;99782.22;5069763;28;20310;-73
2024/01/04 03:24:48;;;;;;;8.95;2.53;;;;;;;9.06;89.50;99780.53;5090096;28;20081;-74
2024/01/04 03:27:14;;;;;;;9.52;2.70;;;;;;;9.07;90.20;99779.59;5089582;28;20103;-74
2024/01/04 03:29:39;;;;;;;5.97;2.10;;;;;;;9.10;90.47;99797.91;5089351;28;20039;-74
2024/01/04 03:32:05;;;;;;;4.85;2.45;;;;;;;9.09;90.52;99795.31;5083414;28;20041;-74
2024/01/04 03:34:30;;;;;;;6.72;2.72;;;;;;;9.07;89.80;99800.69;5071903;28;20439;-74
2024/01/04 03:36:56;;;;;;;6.95;2.90;;;;;;;9.12;89.87;99808.38;5086821;28;20505;-74
2024/01/04 03:39:21;;;;;;;4.70;2.50;;;;;;;9.10;90.02;99805.81;5087249;28;20396;-74
2024/01/04 03:41:47;;;;;;;4.85;2.80;;;;;;;9.07;89.98;99805.97;5087938;28;20056;-74
2024/01/04 03:44:12;;;;;;;4.88;2.42;;;;;;;9.07;90.06;99810.38;5090333;28;20044;-75
2024/01/04 03:46:37;;;;;;;5.90;2.78;;;;;;;9.03;90.88;99812.31;5086890;28;20035;-74
2024/01/04 03:49:03;;;;;;;6.72;2.50;;;;;;;9.00;90.98;99820.41;5088434;28;20038;-75
2024/01/04 03:51:28;;;;;;;4.30;2.35;;;;;;;8.98;90.96;99819.59;5069057;28;20047;-74
2024/01/04 03:53:54;;;;;;;8.68;2.90;;;;;;;8.97;90.73;99823.19;5088344;28;20031;-74
2024/01/04 03:56:19;;;;;;;5.47;2.60;;;;;;;8.98;90.76;99821.38;5090762;28;20103;-74
2024/01/04 03:58:45;;;;;;;5.18;2.80;;;;;;;8.95;91.07;99819.75;5088091;28;20020;-73
2024/01/04 04:01:10;;;;;;;9.20;2.67;;;;;;;8.92;91.56;99820.78;5086880;28;20028;-74
2024/01/04 04:03:36;;;;;;;6.68;3.20;;;;;;;8.88;91.09;99826.28;5090707;28;20103;-74
2024/01/04 04:06:05;;;;;;;7.03;2.80;;;;;;;8.86;91.73;99838.66;5070641;28;20133;-74
2024/01/04 04:08:31;;;;;;;7.43;3.22;;;;;;;8.84;91.59;99837.88;5089269;28;20059;-74
2024/01/04 04:10:56;;;;;;;8.00;3.53;;;;;;;8.83;91.86;99831.75;5083347;28;20054;-74
2024/01/04 04:13:22;;;;;;;11.05;3.65;;;;;;;8.84;92.07;99835.25;5081531;28;20105;-74
2024/01/04 04:15:47;;;;;;;9.13;3.33;;;;;;;8.83;92.15;99838.81;5091602;28;20024;-74
2024/01/04 04:18:12;;;;;;;7.80;3.35;;;;;;;8.84;92.26;99841.38;5085074;28;20019;-74
2024/01/04 04:20:38;;;;;;;7.93;3.40;;;;;;;8.83;92.62;99838.81;5083976;28;20035;-73
2024/01/04 04:23:03;;;;;;;6.85;4.07;;;;;;;8.86;93.07;99847.44;5082187;28;20028;-74
2024/01/04 04:25:29;;;;;;;10.85;3.78;;;;;;;8.88;92.91;99850.84;5088380;28;20057;-75
2024/01/04 04:27:55;;;;;;;10.45;3.78;;;;;;;8.89;93.13;99852.53;5086075;28;20035;-74
2024/01/04 04:30:20;;;;;;;8.65;4.07;;;;;;;8.88;93.12;99847.34;5083499;28;20035;-74
2024/01/04 04:32:46;;;;;;;7.72;3.65;;;;;;;8.93;93.33;99866.44;5082793;28;20420;-74
2024/01/04 04:35:11;;;;;;;6.97;4.00;;;;;;;8.93;93.78;99863.78;5086878;28;20016;-75
2024/01/04 04:37:37;;;;;;;7.80;3.95;;;;;;;8.94;93.30;99863.72;5085889;28;20038;-74
2024/01/04 04:40:03;;;;;;;11.55;4.25;;;;;;;8.96;93.72;99874.19;5086665;28;20050;-77
2024/01/04 04:42:28;;;;;;;12.82;4.43;;;;;;;8.94;94.36;99870.75;5072373;28;20115;-78
2024/01/04 04:44:54;;;;;;;11.13;5.45;;;;;;;8.93;94.58;99872.56;5080243;28;20549;-78
2024/01/04 04:47:19;;;;;;;10.75;4.38;;;;;;;8.93;94.76;99883.09;5081706;28;20036;-77
2024/01/04 04:49:44;;;;;;;7.47;4.32;;;;;;;8.88;95.00;99885.09;5080446;28;20076;-77
2024/01/04 04:52:10;;;;;;;8.73;4.53;;;;;;;8.90;95.76;99895.56;5083569;28;20027;-77
2024/01/04 04:54:35;;;;;;;8.38;4.45;;;;;;;8.86;95.43;99883.47;5082717;28;20047;-77
2024/01/04 04:57:02;;;;;;;12.15;4.85;;;;;;;8.88;95.16;99893.00;5068151;28;20102;-77
2024/01/04 04:59:28;;;;;;;7.93;4.60;;;;;;;8.93;94.83;99892.78;5088792;28;20028;-77
2024/01/04 05:01:53;;;;;;;9.48;4.22;;;;;;;8.91;94.73;99899.94;5084763;28;20420;-77
2024/01/04 05:04:19;;;;;;;7.20;4.03;;;;;;;8.91;95.03;99895.50;5090666;28;20027;-77
2024/01/04 05:06:44;;;;;;;8.10;4.10;;;;;;;8.92;94.59;99896.34;5088961;28;20043;-78
2024/01/04 05:09:09;;;;;;;6.80;3.95;;;;;;;9.20;92.96;99904.63;5092115;28;20483;-78
2024/01/04 05:11:35;;;;;;;10.13;4.35;;;;;;;8.92;93.97;99904.25;5083743;28;20032;-78
2024/01/04 05:14:02;;;;;;;8.70;3.60;;;;;;;8.90;94.63;99904.31;5077096;28;20376;-78
2024/01/04 05:16:27;;;;;;;10.05;4.03;;;;;;;8.92;94.25;99904.25;5083956;28;20528;-78
2024/01/04 05:18:52;;;;;;;8.25;4.47;;;;;;;8.87;94.59;99907.13;5084137;28;20085;-75
2024/01/04 05:21:18;;;;;;;9.57;4.32;;;;;;;8.92;94.54;99912.19;5088697;28;20040;-75
2024/01/04 05:23:43;;;;;;;8.05;4.15;;;;;;;8.91;94.48;99923.66;5084305;28;20028;-74
2024/01/04 05:26:21;;;;;;;9.02;4.15;;;;;;;8.93;94.50;99924.41;5076228;28;20359;-74
2024/01/04 05:28:47;;;;;;;7.55;4.05;;;;;;;8.93;94.64;99929.69;5061761;28;20028;-75
2024/01/04 05:31:15;;;;;;;10.10;4.45;;;;;;;8.94;95.03;99941.94;5065548;28;20384;-74
2024/01/04 05:33:41;;;;;;;11.93;4.90;;;;;;;8.94;95.20;99939.31;5064450;28;20032;-74
2024/01/04 05:36:07;;;;;;;8.32;5.28;;;;;;;8.96;95.41;99941.88;5082073;28;20021;-74
2024/01/04 05:38:32;;;;;;;11.50;5.10;;;;;;;8.95;95.35;99935.72;5080377;28;20592;-74
2024/01/04 05:40:58;;;;;;;7.03;4.80;;;;;;;8.98;95.23;99947.94;5077252;28;20017;-74
2024/01/04 05:43:23;;;;;;;11.75;5.10;;;;;;;8.97;94.94;99948.84;5081069;28;20594;-75
2024/01/04 05:45:49;;;;;;;11.10;5.82;;;;;;;8.94;95.49;99948.06;5080147;28;20400;-74
2024/01/04 05:48:14;;;;;;;7.90;4.45;;;;;;;8.92;95.39;99955.19;5069386;28;20027;-74
2024/01/04 05:50:39;;;;;;;8.68;4.65;;;;;;;8.93;95.51;99962.19;5068497;28;20028;-74
2024/01/04 05:53:06;;;;;;;8.80;4.18;;;;;;;8.89;95.20;99957.97;5082644;28;20061;-75
2024/01/04 05:55:31;;;;;;;9.10;3.55;;;;;;;9.30;92.16;99968.31;5085606;28;20030;-75
2024/01/04 05:57:57;;;;;;;5.38;3.22;;;;;;;9.36;91.35;99973.28;5065044;28;20032;-73
2024/01/04 06:00:22;;;;;;;6.13;3.22;;;;;;;9.34;91.30;99976.94;5068098;28;20023;-74
2024/01/04 06:02:47;;;;;;;6.30;3.13;;;;;;;9.06;92.24;99975.63;5070028;28;20052;-73
2024/01/04 06:05:13;;;;;;;6.15;3.00;;;;;;;8.81;93.78;99985.59;5089358;28;20024;-73
2024/01/04 06:07:38;;;;;;;4.78;2.95;;;;;;;8.80;94.52;99986.53;5090703;28;20482;-74
2024/01/04 06:10:04;;;;;;;7.00;2.60;;;;;;;8.79;94.27;99990.97;5079531;28;20116;-74
2024/01/04 06:12:30;;;;;;;5.95;3.00;;;;;;;8.75;94.19;99992.03;5068710;28;20034;-74
2024/01/04 06:14:55;;;;;;;5.65;3.33;;;;;;;8.72;93.92;99984.28;5089268;28;20028;-74
2024/01/04 06:17:21;;;;;;;4.43;2.50;;;;;;;8.72;94.29;99989.56;5088099;28;20470;-74
2024/01/04 06:19:46;;;;;;;4.68;2.33;;;;;;;8.72;94.33;99997.47;5089754;28;20096;-73
2024/01/04 06:22:11;;;;;;;4.22;2.22;;;;;;;8.72;94.30;100001.84;5090176;28;20028;-74
2024/01/04 06:24:37;;;;;;;5.65;2.42;;;;;;;8.64;94.53;100005.69;5092073;28;20039;-73
2024/01/04 06:27:02;;;;;;;5.60;2.25;;;;;;;8.69;94.54;100011.63;5092047;28;20069;-73
2024/01/04 06:29:29;;;;;;;6.22;2.53;;;;;;;8.71;94.92;100013.31;5094126;28;20088;-73
2024/01/04 06:31:55;;;;;;;4.40;2.83;;;;;;;8.67;94.83;100008.22;5091341;28;20032;-73
2024/01/04 06:34:20;;;;;;;10.05;2.90;;;;;;;8.67;94.98;100013.47;5072119;28;20132;-73
2024/01/04 06:36:47;;;;;;;7.43;3.00;;;;;;;8.63;95.29;100014.53;5089490;28;20019;-73
2024/01/04 06:39:13;;;;;;;8.45;3.10;;;;;;;8.63;95.26;100022.44;5088201;28;20097;-77
2024/01/04 06:41:43;;;;;;;4.75;2.72;;;;;;;8.63;95.36;100022.44;5079704;28;20472;-76
2024/01/04 06:44:08;;;;;;;3.03;2.30;;;;;;;8.64;95.24;100026.78;5085585;28;20027;-77
2024/01/04 06:46:33;;;;;;;6.13;3.13;;;;;;;8.64;95.28;100024.16;5089229;28;20028;-76
2024/01/04 06:48:59;;;;;;;3.33;2.10;;;;;;;8.66;95.24;100029.34;5089872;28;20176;-76
2024/01/04 06:51:25;;;;;;;3.97;2.67;;;;;;;8.64;95.44;100039.09;5093768;28;20030;-76
2024/01/04 06:53:50;;;;;;;4.95;2.50;;;;;;;8.65;95.46;100040.81;5091303;28;20028;-77
2024/01/04 06:56:18;;;;;;;5.50;3.20;;;;;;;8.67;95.40;100044.22;5089934;28;20020;-76
2024/01/04 06:58:44;;;;;;;4.55;2.58;;;;;;;8.69;95.50;100056.41;5083410;28;20028;-76
2024/01/04 07:01:10;;;;;;;5.50;3.47;;;;;;;8.68;95.71;100062.63;5087697;28;20031;-74
2024/01/04 07:03:36;;;;;;;7.32;3.58;;;;;;;8.64;95.66;100058.41;5073923;28;20456;-73
2024/01/04 07:06:02;;;;;;;8.23;3.60;;;;;;;8.62;95.46;100062.88;5069456;28;20065;-73
2024/01/04 07:08:28;;;;;;;5.88;3.33;;;;;;;8.62;95.67;100069.91;5089427;28;20052;-73
2024/01/04 07:10:53;;;;;;;6.18;3.35;;;;;;;8.62;95.88;100070.78;5086782;28;20096;-74
2024/01/04 07:13:18;;;;;;;6.75;3.50;;;;;;;8.61;95.69;100070.84;5074491;28;20115;-74
2024/01/04 07:15:44;;;;;;;7.82;3.67;;;;;;;8.61;95.53;100076.13;5086880;28;20032;-73
2024/01/04 07:18:09;;;;;;;9.75;4.03;;;;;;;8.63;96.08;100082.19;5087684;28;20031;-73
2024/01/04 07:20:37;;;;;;;5.30;3.13;;;;;;;8.62;96.13;100083.09;5086568;28;20486;-74
2024/01/04 07:23:02;;;;;;;7.25;3.30;;;;;;;8.63;95.97;100084.84;5072442;28;20038;-73
2024/01/04 07:25:28;;;;;;;7.68;3.40;;;;;;;8.64;95.56;100094.44;5087467;28;20033;-73
2024/01/04 07:27:53;;;;;;;6.43;3.10;;;;;;;8.66;95.81;100103.13;5067245;28;20135;-73
2024/01/04 07:30:19;;;;;;;8.35;3.85;;;;;;;8.65;95.79;100099.63;5087206;28;20032;-74
2024/01/04 07:32:45;;;;;;;9.02;3.40;;;;;;;8.65;95.72;100107.53;5079072;28;20066;-73
2024/01/04 07:35:12;;;;;;;10.35;3.25;;;;;;;8.66;95.91;100111.03;5079879;28;20332;-74
2024/01/04 07:37:38;;;;;;;4.78;3.13;;;;;;;8.67;95.74;100116.25;5086374;28;20024;-73
2024/01/04 07:40:04;;;;;;;6.50;3.22;;;;;;;8.69;95.86;100124.94;5082464;28;20035;-73
2024/01/04 07:42:30;;;;;;;10.25;3.58;;;;;;;8.72;96.19;100118.69;5090205;28;20020;-73
2024/01/04 07:44:55;;;;;;;6.35;3.40;;;;;;;8.74;95.84;100113.34;5085297;28;20108;-73
2024/01/04 07:47:20;;;;;;;7.03;3.65;;;;;;;8.78;96.12;100117.53;5091206;28;20020;-73
2024/01/04 07:49:46;;;;;;;5.38;2.70;;;;;;;8.83;95.78;100123.47;5083996;28;20036;-74
2024/01/04 07:52:11;;;;;;;5.72;3.10;;;;;;;8.83;96.02;100126.97;5085331;28;20020;-73
2024/01/04 07:54:36;;;;;;;6.93;3.50;;;;;;;8.84;96.14;100130.44;5086595;28;20291;-74
2024/01/04 07:57:02;;;;;;;9.90;5.00;;;;;;;8.81;95.72;100138.47;5064735;28;20107;-73
2024/01/04 07:59:27;;;;;;;8.00;3.58;;;;;;;8.71;95.67;100134.53;5085272;28;20342;-73
2024/01/04 08:01:53;;;;;;;8.13;3.33;;;;;;;8.76;96.10;100137.81;5086936;28;20020;-74
2024/01/04 08:04:18;;;;;;;6.88;3.72;;;;;;;8.77;96.31;100148.31;5080921;28;20015;-74
2024/01/04 08:06:44;;;;;;;6.00;3.30;;;;;;;8.79;96.18;100151.72;5079123;28;20029;-74
2024/01/04 08:09:11;;;;;;;8.63;3.80;;;;;;;8.79;95.96;100156.16;5080382;28;20139;-74
2024/01/04 08:11:38;;;;;;;11.90;4.15;;;;;;;8.78;96.01;100146.53;5076774;28;20483;-74
2024/01/04 08:14:03;;;;;;;7.15;4.32;;;;;;;8.79;95.99;100150.88;5086504;28;20026;-74
2024/01/04 08:16:28;;;;;;;10.25;5.53;;;;;;;8.77;95.86;100150.97;5082261;28;20024;-74
2024/01/04 08:18:54;;;;;;;9.93;5.93;;;;;;;8.78;96.33;100152.66;5086430;28;20088;-74
2024/01/04 08:21:19;;;;;;;13.98;5.55;;;;;;;8.79;95.78;100158.78;5077864;28;20139;-73
2024/01/04 08:23:44;;;;;;;9.93;5.35;;;;;;;8.87;95.27;100157.53;5076260;28;20062;-74
2024/01/04 08:26:10;;;;;;;13.65;6.18;;;;;;;8.79;95.80;100164.91;5076600;28;20028;-74
2024/01/04 08:28:39;;;;;;;7.95;4.80;;;;;;;8.78;95.36;100157.09;5079754;28;20110;-74
2024/01/04 08:31:05;;;;;;;13.15;5.43;;;;;;;8.78;95.57;100157.94;5067820;28;20037;-75
2024/01/04 08:33:30;;;;;;;11.05;4.53;;;;;;;8.81;95.01;100165.72;5075179;28;20492;-74
2024/01/04 08:35:55;;;;;;;11.20;4.80;;;;;;;8.84;95.25;100155.03;5075870;28;20020;-74
2024/01/04 08:38:21;;;;;;;6.57;3.72;;;;;;;8.89;94.96;100171.47;5062378;28;20100;-74
2024/01/04 08:40:47;;;;;;;8.60;4.22;;;;;;;8.92;95.10;100163.44;5058453;28;20270;-74
2024/01/04 08:43:13;;;;;;;7.13;3.42;;;;;;;8.96;94.19;100169.44;5078683;28;20099;-74
2024/01/04 08:45:38;;;;;;;8.35;2.92;;;;;;;9.01;93.99;100164.81;5063433;28;20035;-73
2024/01/04 08:48:04;;;;;;;6.10;2.90;;;;;;;9.00;93.62;100168.41;5081399;28;20031;-77
2024/01/04 08:50:29;;;;;;;7.90;3.13;;;;;;;9.02;93.06;100170.97;5065257;28;20020;-72
2024/01/04 08:52:55;;;;;;;4.25;2.28;;;;;;;9.00;93.12;100181.59;5081974;28;20056;-72
2024/01/04 08:55:20;;;;;;;6.68;2.08;;;;;;;8.94;92.53;100179.19;5088206;28;20020;-72
2024/01/04 08:57:46;;;;;;;5.68;2.13;;;;;;;8.87;92.65;100180.41;5088757;28;20069;-72
2024/01/04 09:00:12;;;;;;;4.78;3.25;;;;;;;8.79;92.74;100186.00;5089474;28;20054;-72
2024/01/04 09:02:38;;;;;;;2.83;2.22;;;;;;;8.85;92.14;100187.50;5086032;28;20047;-72
2024/01/04 09:05:04;;;;;;;3.70;2.05;;;;;;;8.86;92.29;100190.09;5067228;28;20024;-72
2024/01/04 09:07:30;;;;;;;6.03;2.20;;;;;;;8.85;91.85;100196.25;5087736;28;20380;-72
2024/01/04 09:09:55;;;;;;;2.47;2.28;;;;;;;8.92;92.28;100196.88;5088738;28;20048;-72
2024/01/04 09:12:20;;;;;;;3.95;2.42;;;;;;;8.93;92.19;100201.22;5086048;28;20058;-73
2024/01/04 09:14:46;;;;;;;6.60;2.28;;;;;;;8.96;92.02;100203.72;5045953;28;20028;-72
2024/01/04 09:17:11;;;;;;;3.05;2.05;;;;;;;8.97;91.97;100202.78;5063800;28;20015;-73
2024/01/04 09:19:37;;;;;;;4.32;2.03;;;;;;;8.99;92.03;100206.22;5062850;28;20483;-76
2024/01/04 09:22:02;;;;;;;3.72;2.45;;;;;;;9.02;91.63;100213.13;5080767;28;20110;-77
2024/01/04 09:24:28;;;;;;;7.32;2.65;;;;;;;9.04;91.92;100217.41;5088125;28;20114;-76
2024/01/04 09:26:54;;;;;;;3.17;2.13;;;;;;;9.01;91.61;100214.06;5068605;28;20085;-77
2024/01/04 09:29:19;;;;;;;3.30;1.98;;;;;;;9.03;91.24;100213.06;5085258;28;20045;-77
2024/01/04 09:31:44;;;;;;;3.47;2.10;;;;;;;9.02;91.74;100221.91;5085489;28;20445;-77
2024/01/04 09:34:10;;;;;;;3.00;1.73;;;;;;;9.04;92.12;100224.47;5088453;28;20030;-77
2024/01/04 09:36:35;;;;;;;2.35;1.60;;;;;;;8.99;91.95;100221.19;5088602;28;20012;-78
2024/01/04 09:39:03;;;;;;;2.17;1.38;;;;;;;8.97;92.94;100231.78;5083390;28;20108;-77
2024/01/04 09:41:32;;;;;;;2.88;1.10;;;;;;;8.91;93.05;100232.91;5079815;28;20123;-76
2024/01/04 09:44:05;;;;;;;1.92;1.40;;;;;;;8.89;92.78;100236.53;5090408;28;20053;-76
2024/01/04 09:46:38;;;;;;;2.88;1.50;;;;;;;8.91;93.00;100237.34;5085445;28;20580;-76
2024/01/04 09:49:05;;;;;;;3.63;1.40;;;;;;;8.92;93.09;100242.53;5088629;28;20487;-77
2024/01/04 09:51:34;;;;;;;2.33;1.20;;;;;;;8.97;92.58;100255.53;5090010;28;20064;-76
2024/01/04 09:54:00;;;;;;;1.95;1.25;;;;;;;8.98;93.13;100251.97;5064071;28;20055;-76
2024/01/04 09:56:26;;;;;;;2.25;1.55;;;;;;;8.97;93.33;100268.72;5075016;28;20082;-76
2024/01/04 09:58:53;;;;;;;2.22;1.30;;;;;;;8.96;93.49;100264.38;5091880;28;20458;-76
2024/01/04 10:01:23;;;;;;;1.50;1.30;;;;;;;9.03;94.05;100264.94;5066838;28;20028;-76
2024/01/04 10:03:49;;;;;;;2.35;2.15;;;;;;;9.04;93.28;100278.06;5063143;28;20024;-76
2024/01/04 10:06:34;;;;;;;1.95;1.33;;;;;;;9.03;93.24;100278.97;5061032;28;20507;-76
2024/01/04 10:09:15;;;;;;;2.50;1.10;;;;;;;8.98;93.60;100288.88;5086916;28;20071;-76
2024/01/04 10:11:53;;;;;;;3.70;1.40;;;;;;;8.97;93.61;100287.16;5065957;28;20028;-77
2024/01/04 10:14:19;;;;;;;2.78;1.52;;;;;;;8.92;93.74;100291.78;5080451;28;20573;-77
2024/01/04 10:16:47;;;;;;;3.10;1.40;;;;;;;8.89;94.00;100287.47;5088889;28;20032;-76
2024/01/04 10:19:12;;;;;;;5.32;1.48;;;;;;;8.89;94.22;100290.09;5086704;28;20074;-76
2024/01/04 10:21:38;;;;;;;4.38;1.83;;;;;;;8.87;94.18;100291.97;5089495;28;20469;-76
2024/01/04 10:24:03;;;;;;;2.20;1.70;;;;;;;8.92;94.89;100286.50;5084874;28;20116;-76
2024/01/04 10:26:29;;;;;;;2.90;1.83;;;;;;;8.95;94.29;100288.97;5089267;28;20392;-77
2024/01/04 10:28:55;;;;;;;4.13;1.90;;;;;;;8.94;94.01;100287.28;5085317;28;20407;-77
2024/01/04 10:31:21;;;;;;;3.00;1.63;;;;;;;8.96;94.14;100289.88;5087396;28;20907;-76
2024/01/04 10:33:46;;;;;;;4.07;1.90;;;;;;;8.97;93.78;100289.78;5089358;28;20559;-76
2024/01/04 10:36:13;;;;;;;5.22;1.92;;;;;;;9.03;93.87;100300.06;5084926;28;20078;-76
2024/01/04 10:38:38;;;;;;;3.33;2.20;;;;;;;9.06;94.45;100291.19;5083233;28;20039;-76
2024/01/04 10:41:04;;;;;;;4.60;2.30;;;;;;;9.11;94.07;100297.13;5083987;28;20103;-76
2024/01/04 10:43:34;;;;;;;2.58;2.20;;;;;;;9.12;94.02;100296.19;5072140;28;20024;-76
2024/01/04 10:46:08;;;;;;;5.90;2.53;;;;;;;9.15;94.16;100296.06;5083663;28;20024;-76
2024/01/04 10:48:35;;;;;;;3.58;2.47;;;;;;;9.11;93.81;100299.75;5068442;28;20487;-77
2024/01/04 10:51:07;;;;;;;6.28;2.08;;;;;;;9.05;93.52;100300.88;5062190;28;20428;-76
2024/01/04 10:53:37;;;;;;;4.47;1.70;;;;;;;9.09;93.22;100304.22;5086337;28;20020;-77
2024/01/04 10:56:03;;;;;;;3.90;1.73;;;;;;;9.17;93.41;100300.34;5085059;28;20381;-76
2024/01/04 10:58:35;;;;;;;3.78;1.48;;;;;;;9.28;92.46;100305.19;5086006;28;20104;-76
2024/01/04 11:01:02;;;;;;;4.65;1.52;;;;;;;9.35;91.88;100300.47;5064849;28;20033;-77
2024/01/04 11:03:31;;;;;;;1.83;1.30;;;;;;;9.35;91.42;100308.38;5047467;28;20050;-76
2024/01/04 11:06:00;;;;;;;2.08;1.50;;;;;;;9.35;91.26;100311.88;5082134;28;20462;-77
2024/01/04 11:08:27;;;;;;;2.10;1.17;;;;;;;9.30;91.28;100302.47;5084899;28;20105;-77
2024/01/04 11:10:53;;;;;;;2.47;1.30;;;;;;;9.39;91.59;100310.81;5082628;28;20024;-77
2024/01/04 11:13:19;;;;;;;3.25;1.20;;;;;;;9.70;91.19;100299.78;5061767;28;20382;-78
2024/01/04 11:15:45;;;;;;;2.63;1.23;;;;;;;10.51;90.03;100302.22;5085401;28;20036;-77
2024/01/04 11:18:23;;;;;;;2.25;1.33;;;;;;;10.64;87.28;100314.75;5081199;28;20498;-76
2024/01/04 11:20:56;;;;;;;1.40;0.90;;;;;;;10.31;86.97;100306.66;5081323;28;20534;-77
2024/01/04 11:23:47;;;;;;;1.73;0.98;;;;;;;9.99;88.41;100305.50;5082933;28;20016;-77
2024/01/04 11:26:27;;;;;;;1.27;1.17;;;;;;;9.83;88.84;100307.13;5085558;28;20028;-77
2024/01/04 11:28:54;;;;;;;4.03;1.73;;;;;;;9.81;88.58;100308.97;5083967;28;20494;-77
2024/01/04 11:31:23;;;;;;;2.28;0.98;;;;;;;9.78;89.46;100301.19;5082921;28;20114;-77